CheckWX is a tool to help pilots better visualize weather data.  It is not intended as a substitute for an official pre-flight weather briefing.

00:25:46 UTC

KPNE TAF
Northeast Philadelphia Airport
Philadelphia, Pennsylvania, USA
KPNE 110521Z 1106/1206 23006KT P6SM SCT100 TEMPO 1108/1110 5SM BR FM111200 21008KT P6SM SCT045 FM111800 21012KT P6SM VCTS BKN045CB FM112300 24007KT P6SM SCT150

Jul-11@
06:00 UTC

Jul-11 @ 06:00 UTC

Jul-11@
12:00 UTC

Jul-11 @ 12:00 UTC

TAF KPNE 110521Z 1106/1206 23006KT P6SM SCT100

Expired

Wind
  • 230° at 6 KTS
Cloud Levels
  • Scattered at 10,000' AGL

Jul-11@
08:00 UTC

Jul-11 @ 08:00 UTC

Jul-11@
10:00 UTC

Jul-11 @ 10:00 UTC

TEMPO 1108/1110 5SM BR

Expired

Conditions
Mist
Cloud Levels

Jul-11@
12:00 UTC

Jul-11 @ 12:00 UTC

Jul-11@
18:00 UTC

Jul-11 @ 18:00 UTC

FM111200 21008KT P6SM SCT045

Expired

Wind
  • 210° at 8 KTS
Cloud Levels
  • Scattered at 4,500' AGL

Jul-11@
18:00 UTC

Jul-11 @ 18:00 UTC

Jul-11@
23:00 UTC

Jul-11 @ 23:00 UTC

FM111800 21012KT P6SM VCTS BKN045CB

Expired

Wind
  • 210° at 12 KTS
Conditions
Area Thunderstorm
Cloud Levels
  • Broken at 4,500' AGL

Jul-11@
23:00 UTC

Jul-11 @ 23:00 UTC

Jul-12@
06:00 UTC

Jul-12 @ 06:00 UTC

FM112300 24007KT P6SM SCT150

From

From Standard forecast or significant change

Wind
  • 240° at 7 KTS
Cloud Levels
  • Scattered at 15,000' AGL